sensor_id;sensor_type;location;lat;lon;timestamp;pressure;altitude;pressure_sealevel;temperature;humidity
9717;BME280;4897;43.570;27.832;2022-08-19T00:00:42;98512.78;;;22.04;100.00
9717;BME280;4897;43.570;27.832;2022-08-19T00:03:09;98509.56;;;22.13;100.00
9717;BME280;4897;43.570;27.832;2022-08-19T00:05:36;98563.50;;;22.36;100.00
9717;BME280;4897;43.570;27.832;2022-08-19T00:08:07;98490.69;;;21.87;100.00
9717;BME280;4897;43.570;27.832;2022-08-19T00:10:36;98507.00;;;21.94;100.00
9717;BME280;4897;43.570;27.832;2022-08-19T00:13:03;98532.50;;;21.99;100.00
9717;BME280;4897;43.570;27.832;2022-08-19T00:15:30;98574.56;;;22.41;100.00
9717;BME280;4897;43.570;27.832;2022-08-19T00:17:59;98545.13;;;22.25;100.00
9717;BME280;4897;43.570;27.832;2022-08-19T00:20:26;98585.03;;;22.44;100.00
9717;BME280;4897;43.570;27.832;2022-08-19T00:22:53;98577.06;;;22.43;100.00
9717;BME280;4897;43.570;27.832;2022-08-19T00:25:25;98574.59;;;22.35;100.00
9717;BME280;4897;43.570;27.832;2022-08-19T00:27:52;98582.38;;;22.31;100.00
9717;BME280;4897;43.570;27.832;2022-08-19T00:30:19;98556.78;;;22.01;100.00
9717;BME280;4897;43.570;27.832;2022-08-19T00:32:46;98586.16;;;22.30;100.00
9717;BME280;4897;43.570;27.832;2022-08-19T00:35:17;98588.03;;;22.36;100.00
9717;BME280;4897;43.570;27.832;2022-08-19T00:37:49;98578.69;;;22.19;100.00
9717;BME280;4897;43.570;27.832;2022-08-19T00:40:17;98588.72;;;22.25;100.00
9717;BME280;4897;43.570;27.832;2022-08-19T00:42:46;98574.44;;;21.92;100.00
9717;BME280;4897;43.570;27.832;2022-08-19T00:45:21;98578.22;;;22.22;100.00
9717;BME280;4897;43.570;27.832;2022-08-19T00:47:48;98569.97;;;22.04;100.00
9717;BME280;4897;43.570;27.832;2022-08-19T00:50:20;98588.97;;;22.17;100.00
9717;BME280;4897;43.570;27.832;2022-08-19T00:52:50;98580.84;;;22.04;100.00
9717;BME280;4897;43.570;27.832;2022-08-19T00:55:25;98526.38;;;21.60;100.00
9717;BME280;4897;43.570;27.832;2022-08-19T00:57:57;98590.88;;;22.10;100.00
9717;BME280;4897;43.570;27.832;2022-08-19T01:00:26;98558.50;;;21.89;100.00
9717;BME280;4897;43.570;27.832;2022-08-19T01:02:54;98405.72;;;20.77;100.00
9717;BME280;4897;43.570;27.832;2022-08-19T01:05:23;98541.41;;;21.69;100.00
9717;BME280;4897;43.570;27.832;2022-08-19T01:07:55;98570.25;;;21.83;100.00
9717;BME280;4897;43.570;27.832;2022-08-19T01:10:26;98584.69;;;21.96;100.00
9717;BME280;4897;43.570;27.832;2022-08-19T01:12:57;98586.09;;;21.99;100.00
9717;BME280;4897;43.570;27.832;2022-08-19T01:15:29;98580.13;;;21.71;100.00
9717;BME280;4897;43.570;27.832;2022-08-19T01:17:57;98595.38;;;21.85;100.00
9717;BME280;4897;43.570;27.832;2022-08-19T01:20:27;98572.34;;;21.74;100.00
9717;BME280;4897;43.570;27.832;2022-08-19T01:22:58;98536.66;;;21.44;100.00
9717;BME280;4897;43.570;27.832;2022-08-19T01:25:34;98581.56;;;21.80;100.00
9717;BME280;4897;43.570;27.832;2022-08-19T01:28:02;98572.78;;;21.78;100.00
9717;BME280;4897;43.570;27.832;2022-08-19T01:30:32;98575.09;;;21.74;100.00
9717;BME280;4897;43.570;27.832;2022-08-19T01:33:00;98568.00;;;21.67;100.00
9717;BME280;4897;43.570;27.832;2022-08-19T01:35:30;98586.59;;;21.76;100.00
9717;BME280;4897;43.570;27.832;2022-08-19T01:38:01;98583.69;;;21.78;100.00
9717;BME280;4897;43.570;27.832;2022-08-19T01:40:34;98566.97;;;21.61;100.00
9717;BME280;4897;43.570;27.832;2022-08-19T01:43:05;98568.63;;;21.69;100.00
9717;BME280;4897;43.570;27.832;2022-08-19T01:45:34;98551.72;;;21.54;100.00
9717;BME280;4897;43.570;27.832;2022-08-19T01:48:02;98573.44;;;21.67;100.00
9717;BME280;4897;43.570;27.832;2022-08-19T01:50:33;98568.03;;;21.54;100.00
9717;BME280;4897;43.570;27.832;2022-08-19T01:53:03;98553.22;;;21.43;100.00
9717;BME280;4897;43.570;27.832;2022-08-19T01:55:35;98571.97;;;21.64;100.00
9717;BME280;4897;43.570;27.832;2022-08-19T01:58:05;98553.19;;;21.49;100.00
9717;BME280;4897;43.570;27.832;2022-08-19T02:00:35;98566.16;;;21.61;100.00
9717;BME280;4897;43.570;27.832;2022-08-19T02:03:02;98567.63;;;21.50;100.00
9717;BME280;4897;43.570;27.832;2022-08-19T02:05:31;98561.38;;;21.43;100.00
9717;BME280;4897;43.570;27.832;2022-08-19T02:07:58;98571.63;;;21.41;100.00
9717;BME280;4897;43.570;27.832;2022-08-19T02:10:27;98566.38;;;21.53;100.00
9717;BME280;4897;43.570;27.832;2022-08-19T02:12:54;98570.78;;;21.40;100.00
9717;BME280;4897;43.570;27.832;2022-08-19T02:15:21;98543.66;;;21.14;100.00
9717;BME280;4897;43.570;27.832;2022-08-19T02:17:48;98557.00;;;21.42;100.00
9717;BME280;4897;43.570;27.832;2022-08-19T02:20:15;98581.47;;;21.48;100.00
9717;BME280;4897;43.570;27.832;2022-08-19T02:22:43;98570.84;;;21.34;100.00
9717;BME280;4897;43.570;27.832;2022-08-19T02:25:10;98561.16;;;21.44;100.00
9717;BME280;4897;43.570;27.832;2022-08-19T02:27:40;98553.19;;;21.49;100.00
9717;BME280;4897;43.570;27.832;2022-08-19T02:30:14;98520.44;;;21.12;100.00
9717;BME280;4897;43.570;27.832;2022-08-19T02:32:42;98547.59;;;21.31;100.00
9717;BME280;4897;43.570;27.832;2022-08-19T02:35:10;98563.06;;;21.44;100.00
9717;BME280;4897;43.570;27.832;2022-08-19T02:37:37;98558.25;;;21.39;100.00
9717;BME280;4897;43.570;27.832;2022-08-19T02:40:24;98564.09;;;21.43;100.00
9717;BME280;4897;43.570;27.832;2022-08-19T02:42:53;98546.94;;;21.42;100.00
9717;BME280;4897;43.570;27.832;2022-08-19T02:45:21;98559.66;;;21.55;100.00
9717;BME280;4897;43.570;27.832;2022-08-19T02:47:48;98564.09;;;21.43;100.00
9717;BME280;4897;43.570;27.832;2022-08-19T02:50:15;98557.00;;;21.35;100.00
9717;BME280;4897;43.570;27.832;2022-08-19T02:52:43;98566.41;;;21.46;100.00
9717;BME280;4897;43.570;27.832;2022-08-19T02:55:10;98520.22;;;21.13;100.00
9717;BME280;4897;43.570;27.832;2022-08-19T02:57:39;98559.72;;;21.42;100.00
9717;BME280;4897;43.570;27.832;2022-08-19T03:00:09;98550.75;;;21.28;100.00
9717;BME280;4897;43.570;27.832;2022-08-19T03:02:38;98559.28;;;21.32;100.00
9717;BME280;4897;43.570;27.832;2022-08-19T03:05:07;98562.69;;;21.27;100.00
9717;BME280;4897;43.570;27.832;2022-08-19T03:07:35;98521.91;;;21.01;100.00
9717;BME280;4897;43.570;27.832;2022-08-19T03:10:02;98561.22;;;21.18;100.00
9717;BME280;4897;43.570;27.832;2022-08-19T03:12:29;98557.88;;;21.16;100.00
9717;BME280;4897;43.570;27.832;2022-08-19T03:14:56;98568.75;;;21.16;100.00
9717;BME280;4897;43.570;27.832;2022-08-19T03:17:25;98537.19;;;20.89;100.00
9717;BME280;4897;43.570;27.832;2022-08-19T03:19:54;98550.78;;;21.02;100.00
9717;BME280;4897;43.570;27.832;2022-08-19T03:22:21;98574.81;;;21.12;100.00
9717;BME280;4897;43.570;27.832;2022-08-19T03:24:48;98571.47;;;21.16;100.00
9717;BME280;4897;43.570;27.832;2022-08-19T03:27:15;98573.78;;;21.19;100.00
9717;BME280;4897;43.570;27.832;2022-08-19T03:29:43;98571.03;;;21.32;100.00
9717;BME280;4897;43.570;27.832;2022-08-19T03:32:10;98588.59;;;21.36;100.00
9717;BME280;4897;43.570;27.832;2022-08-19T03:34:42;98582.94;;;21.38;100.00
9717;BME280;4897;43.570;27.832;2022-08-19T03:37:11;98584.59;;;21.39;100.00
9717;BME280;4897;43.570;27.832;2022-08-19T03:39:39;98574.59;;;21.26;100.00
9717;BME280;4897;43.570;27.832;2022-08-19T03:42:07;98589.03;;;21.33;100.00
9717;BME280;4897;43.570;27.832;2022-08-19T03:44:35;98592.59;;;21.27;100.00
9717;BME280;4897;43.570;27.832;2022-08-19T03:47:04;98605.75;;;21.37;100.00
9717;BME280;4897;43.570;27.832;2022-08-19T03:49:32;98602.41;;;21.41;100.00
9717;BME280;4897;43.570;27.832;2022-08-19T03:52:02;98596.97;;;21.28;100.00
9717;BME280;4897;43.570;27.832;2022-08-19T03:54:32;98613.50;;;21.33;100.00
9717;BME280;4897;43.570;27.832;2022-08-19T03:56:59;98534.88;;;20.86;100.00
9717;BME280;4897;43.570;27.832;2022-08-19T03:59:29;98612.66;;;21.33;100.00
9717;BME280;4897;43.570;27.832;2022-08-19T04:02:00;98635.66;;;21.43;100.00
9717;BME280;4897;43.570;27.832;2022-08-19T04:04:28;98628.97;;;21.39;100.00
9717;BME280;4897;43.570;27.832;2022-08-19T04:06:55;98525.91;;;20.86;100.00
9717;BME280;4897;43.570;27.832;2022-08-19T04:09:26;98627.66;;;21.62;100.00
9717;BME280;4897;43.570;27.832;2022-08-19T04:11:56;98625.38;;;21.65;100.00
9717;BME280;4897;43.570;27.832;2022-08-19T04:14:27;98631.84;;;21.71;100.00
9717;BME280;4897;43.570;27.832;2022-08-19T04:16:58;98630.16;;;21.70;100.00
9717;BME280;4897;43.570;27.832;2022-08-19T04:19:25;98631.22;;;21.82;100.00
9717;BME280;4897;43.570;27.832;2022-08-19T04:21:53;98608.78;;;21.80;100.00
9717;BME280;4897;43.570;27.832;2022-08-19T04:24:21;98594.13;;;21.74;100.00
9717;BME280;4897;43.570;27.832;2022-08-19T04:26:50;98627.53;;;22.07;100.00
9717;BME280;4897;43.570;27.832;2022-08-19T04:29:19;98628.84;;;22.05;100.00
9717;BME280;4897;43.570;27.832;2022-08-19T04:31:48;98631.72;;;22.10;100.00
9717;BME280;4897;43.570;27.832;2022-08-19T04:34:22;98615.38;;;22.10;100.00
9717;BME280;4897;43.570;27.832;2022-08-19T04:36:50;98614.13;;;22.12;100.00
9717;BME280;4897;43.570;27.832;2022-08-19T04:39:20;98623.28;;;22.24;100.00
9717;BME280;4897;43.570;27.832;2022-08-19T04:41:47;98644.22;;;22.24;100.00
9717;BME280;4897;43.570;27.832;2022-08-19T04:44:34;98641.91;;;22.34;100.00
9717;BME280;4897;43.570;27.832;2022-08-19T04:47:02;98577.91;;;22.05;100.00
9717;BME280;4897;43.570;27.832;2022-08-19T04:49:30;98654.97;;;22.57;100.00
9717;BME280;4897;43.570;27.832;2022-08-19T04:51:58;98624.81;;;22.52;100.00
9717;BME280;4897;43.570;27.832;2022-08-19T04:54:25;98634.31;;;22.74;100.00
9717;BME280;4897;43.570;27.832;2022-08-19T04:56:53;98639.34;;;22.77;100.00
9717;BME280;4897;43.570;27.832;2022-08-19T04:59:20;98639.72;;;22.80;100.00
9717;BME280;4897;43.570;27.832;2022-08-19T05:01:49;98639.47;;;22.88;100.00
9717;BME280;4897;43.570;27.832;2022-08-19T05:04:17;98625.44;;;22.85;100.00
9717;BME280;4897;43.570;27.832;2022-08-19T05:06:49;98639.44;;;23.20;100.00
9717;BME280;4897;43.570;27.832;2022-08-19T05:09:20;98645.22;;;23.30;100.00
9717;BME280;4897;43.570;27.832;2022-08-19T05:11:47;98618.16;;;23.03;100.00
9717;BME280;4897;43.570;27.832;2022-08-19T05:14:16;98654.38;;;23.42;100.00
9717;BME280;4897;43.570;27.832;2022-08-19T05:16:44;98639.50;;;23.38;100.00
9717;BME280;4897;43.570;27.832;2022-08-19T05:19:14;98659.97;;;23.71;100.00
9717;BME280;4897;43.570;27.832;2022-08-19T05:21:59;98661.13;;;23.82;100.00
9717;BME280;4897;43.570;27.832;2022-08-19T05:24:44;98663.31;;;23.92;100.00
9717;BME280;4897;43.570;27.832;2022-08-19T05:27:10;98655.03;;;23.98;100.00
9717;BME280;4897;43.570;27.832;2022-08-19T05:29:39;98583.66;;;23.58;100.00
9717;BME280;4897;43.570;27.832;2022-08-19T05:32:06;98614.22;;;23.85;100.00
9717;BME280;4897;43.570;27.832;2022-08-19T05:34:38;98648.69;;;24.22;100.00
9717;BME280;4897;43.570;27.832;2022-08-19T05:37:08;98590.88;;;23.71;100.00
9717;BME280;4897;43.570;27.832;2022-08-19T05:39:39;98632.31;;;24.04;100.00
9717;BME280;4897;43.570;27.832;2022-08-19T05:42:10;98659.16;;;24.25;100.00
9717;BME280;4897;43.570;27.832;2022-08-19T05:44:40;98638.88;;;24.33;100.00
9717;BME280;4897;43.570;27.832;2022-08-19T05:47:12;98626.47;;;24.48;100.00
9717;BME280;4897;43.570;27.832;2022-08-19T05:49:42;98579.44;;;24.28;100.00
9717;BME280;4897;43.570;27.832;2022-08-19T05:52:11;98645.69;;;25.01;100.00
9717;BME280;4897;43.570;27.832;2022-08-19T05:54:39;98600.16;;;25.07;100.00
9717;BME280;4897;43.570;27.832;2022-08-19T05:57:07;98631.16;;;25.42;100.00
9717;BME280;4897;43.570;27.832;2022-08-19T05:59:34;98648.41;;;25.54;100.00
9717;BME280;4897;43.570;27.832;2022-08-19T06:02:05;98665.06;;;25.53;100.00
9717;BME280;4897;43.570;27.832;2022-08-19T06:04:33;98638.41;;;25.48;100.00
9717;BME280;4897;43.570;27.832;2022-08-19T06:07:01;98583.34;;;25.03;100.00
9717;BME280;4897;43.570;27.832;2022-08-19T06:09:32;98608.34;;;25.07;100.00
9717;BME280;4897;43.570;27.832;2022-08-19T06:12:08;98523.41;;;24.37;100.00
9717;BME280;4897;43.570;27.832;2022-08-19T06:14:37;98600.41;;;25.05;100.00
9717;BME280;4897;43.570;27.832;2022-08-19T06:17:06;98620.59;;;25.16;100.00
9717;BME280;4897;43.570;27.832;2022-08-19T06:19:34;98645.69;;;25.43;100.00
9717;BME280;4897;43.570;27.832;2022-08-19T06:22:03;98608.13;;;25.31;100.00
9717;BME280;4897;43.570;27.832;2022-08-19T06:24:32;98505.94;;;24.80;100.00
9717;BME280;4897;43.570;27.832;2022-08-19T06:26:59;98562.94;;;25.41;100.00
9717;BME280;4897;43.570;27.832;2022-08-19T06:29:27;98624.28;;;26.02;100.00
9717;BME280;4897;43.570;27.832;2022-08-19T06:31:56;98605.34;;;26.12;100.00
9717;BME280;4897;43.570;27.832;2022-08-19T06:34:24;98628.50;;;26.45;100.00
9717;BME280;4897;43.570;27.832;2022-08-19T06:36:53;98582.69;;;26.17;100.00
9717;BME280;4897;43.570;27.832;2022-08-19T06:39:23;98596.31;;;26.40;100.00
9717;BME280;4897;43.570;27.832;2022-08-19T06:41:53;98620.13;;;26.51;100.00
9717;BME280;4897;43.570;27.832;2022-08-19T06:44:23;98634.25;;;26.32;100.00
9717;BME280;4897;43.570;27.832;2022-08-19T06:46:50;98625.13;;;26.14;100.00
9717;BME280;4897;43.570;27.832;2022-08-19T06:49:18;98619.66;;;26.14;100.00
9717;BME280;4897;43.570;27.832;2022-08-19T06:51:46;98577.00;;;25.95;100.00
9717;BME280;4897;43.570;27.832;2022-08-19T06:54:16;98625.63;;;26.11;100.00
9717;BME280;4897;43.570;27.832;2022-08-19T06:56:45;98628.44;;;26.17;100.00
9717;BME280;4897;43.570;27.832;2022-08-19T06:59:14;98564.53;;;25.88;100.00
9717;BME280;4897;43.570;27.832;2022-08-19T07:01:45;98621.91;;;26.46;100.00
9717;BME280;4897;43.570;27.832;2022-08-19T07:04:15;98613.94;;;26.44;100.00
9717;BME280;4897;43.570;27.832;2022-08-19T07:06:43;98624.66;;;26.46;100.00
9717;BME280;4897;43.570;27.832;2022-08-19T07:09:13;98589.75;;;26.41;100.00
9717;BME280;4897;43.570;27.832;2022-08-19T07:11:46;98593.63;;;26.57;100.00
9717;BME280;4897;43.570;27.832;2022-08-19T07:14:18;98596.66;;;26.44;100.00
9717;BME280;4897;43.570;27.832;2022-08-19T07:16:46;98595.81;;;26.71;100.00
9717;BME280;4897;43.570;27.832;2022-08-19T07:19:13;98596.41;;;26.73;100.00
9717;BME280;4897;43.570;27.832;2022-08-19T07:21:43;98549.63;;;26.80;100.00
9717;BME280;4897;43.570;27.832;2022-08-19T07:24:10;98620.31;;;27.06;100.00
9717;BME280;4897;43.570;27.832;2022-08-19T07:26:39;98614.25;;;27.04;100.00
9717;BME280;4897;43.570;27.832;2022-08-19T07:29:09;98450.91;;;26.19;100.00
9717;BME280;4897;43.570;27.832;2022-08-19T07:31:36;98591.09;;;27.33;100.00
9717;BME280;4897;43.570;27.832;2022-08-19T07:34:05;98523.91;;;27.19;100.00
9717;BME280;4897;43.570;27.832;2022-08-19T07:36:35;98535.97;;;27.02;100.00
9717;BME280;4897;43.570;27.832;2022-08-19T07:39:07;98436.28;;;26.96;100.00
9717;BME280;4897;43.570;27.832;2022-08-19T07:41:37;98363.72;;;26.70;100.00
9717;BME280;4897;43.570;27.832;2022-08-19T07:44:09;98417.50;;;26.88;100.00
9717;BME280;4897;43.570;27.832;2022-08-19T07:46:41;98453.78;;;27.50;100.00
9717;BME280;4897;43.570;27.832;2022-08-19T07:54:24;98633.16;;;29.02;100.00
9717;BME280;4897;43.570;27.832;2022-08-19T08:13:52;98593.97;;;34.20;92.37
9717;BME280;4897;43.570;27.832;2022-08-19T08:16:19;98478.44;;;33.82;85.83
9717;BME280;4897;43.570;27.832;2022-08-19T08:18:47;98497.34;;;34.41;84.82
9717;BME280;4897;43.570;27.832;2022-08-19T08:21:14;98568.31;;;34.52;78.20
9717;BME280;4897;43.570;27.832;2022-08-19T08:23:42;98399.03;;;33.20;84.55
9717;BME280;4897;43.570;27.832;2022-08-19T08:26:09;98584.00;;;36.36;67.92
9717;BME280;4897;43.570;27.832;2022-08-19T08:28:43;98585.38;;;35.66;70.23
9717;BME280;4897;43.570;27.832;2022-08-19T08:31:15;98592.09;;;34.95;74.97
9717;BME280;4897;43.570;27.832;2022-08-19T08:33:42;98536.25;;;31.61;100.00
9717;BME280;4897;43.570;27.832;2022-08-19T08:36:13;98491.28;;;32.04;100.00
9717;BME280;4897;43.570;27.832;2022-08-19T08:38:41;98521.16;;;34.05;81.02
9717;BME280;4897;43.570;27.832;2022-08-19T08:41:17;98629.03;;;33.25;92.27
9717;BME280;4897;43.570;27.832;2022-08-19T08:43:50;98504.66;;;32.80;100.00
9717;BME280;4897;43.570;27.832;2022-08-19T08:46:25;98362.69;;;33.45;78.75
9717;BME280;4897;43.570;27.832;2022-08-19T08:48:57;98383.59;;;33.80;75.59
9717;BME280;4897;43.570;27.832;2022-08-19T08:51:28;98541.91;;;36.24;63.34
9717;BME280;4897;43.570;27.832;2022-08-19T08:53:56;98558.75;;;36.82;60.13
9717;BME280;4897;43.570;27.832;2022-08-19T08:56:24;98591.06;;;34.91;72.50
9717;BME280;4897;43.570;27.832;2022-08-19T08:58:59;98618.31;;;33.42;95.98
9717;BME280;4897;43.570;27.832;2022-08-19T09:01:33;98590.13;;;34.40;81.74
9717;BME280;4897;43.570;27.832;2022-08-19T09:04:03;98581.16;;;34.85;76.76
9717;BME280;4897;43.570;27.832;2022-08-19T09:06:37;98589.47;;;36.14;65.96
9717;BME280;4897;43.570;27.832;2022-08-19T09:09:13;98584.72;;;38.67;53.40
9717;BME280;4897;43.570;27.832;2022-08-19T09:11:54;98598.84;;;38.62;51.00
9717;BME280;4897;43.570;27.832;2022-08-19T09:14:36;98561.06;;;38.73;48.93
9717;BME280;4897;43.570;27.832;2022-08-19T09:17:09;98609.78;;;40.12;42.94
9717;BME280;4897;43.570;27.832;2022-08-19T09:19:49;98564.91;;;40.21;42.47
9717;BME280;4897;43.570;27.832;2022-08-19T09:22:16;98506.69;;;39.68;43.01
9717;BME280;4897;43.570;27.832;2022-08-19T09:24:47;98579.38;;;40.60;41.37
9717;BME280;4897;43.570;27.832;2022-08-19T09:27:14;98556.81;;;38.75;44.12
9717;BME280;4897;43.570;27.832;2022-08-19T09:29:42;98552.94;;;36.92;51.28
9717;BME280;4897;43.570;27.832;2022-08-19T09:32:16;98609.88;;;36.37;53.03
9717;BME280;4897;43.570;27.832;2022-08-19T09:34:47;98576.97;;;37.24;49.78
9717;BME280;4897;43.570;27.832;2022-08-19T09:37:14;98596.28;;;39.08;45.50
9717;BME280;4897;43.570;27.832;2022-08-19T09:39:41;98618.34;;;39.61;43.32
9717;BME280;4897;43.570;27.832;2022-08-19T09:42:09;98604.16;;;36.82;51.59
9717;BME280;4897;43.570;27.832;2022-08-19T09:44:42;98601.91;;;38.34;45.99
9717;BME280;4897;43.570;27.832;2022-08-19T09:47:12;98619.50;;;39.51;40.55
9717;BME280;4897;43.570;27.832;2022-08-19T09:49:43;98602.19;;;37.63;45.73
9717;BME280;4897;43.570;27.832;2022-08-19T09:52:10;98506.47;;;37.93;42.29
9717;BME280;4897;43.570;27.832;2022-08-19T09:54:38;98473.44;;;38.69;40.38
9717;BME280;4897;43.570;27.832;2022-08-19T09:57:06;98523.69;;;38.43;41.67
9717;BME280;4897;43.570;27.832;2022-08-19T09:59:33;98606.97;;;39.06;41.34
9717;BME280;4897;43.570;27.832;2022-08-19T10:02:00;98527.03;;;38.88;40.68
9717;BME280;4897;43.570;27.832;2022-08-19T10:04:27;98604.75;;;37.51;44.40
9717;BME280;4897;43.570;27.832;2022-08-19T10:07:20;98614.81;;;37.83;44.34
9717;BME280;4897;43.570;27.832;2022-08-19T10:09:50;98608.94;;;39.05;42.04
9717;BME280;4897;43.570;27.832;2022-08-19T10:12:17;98612.75;;;39.61;40.06
9717;BME280;4897;43.570;27.832;2022-08-19T10:14:46;98590.84;;;39.29;40.08
9717;BME280;4897;43.570;27.832;2022-08-19T10:17:13;98541.66;;;36.61;45.14
9717;BME280;4897;43.570;27.832;2022-08-19T10:19:40;98616.59;;;38.09;42.68
9717;BME280;4897;43.570;27.832;2022-08-19T10:22:07;98581.78;;;38.89;40.48
9717;BME280;4897;43.570;27.832;2022-08-19T10:24:37;98467.81;;;38.34;39.32
9717;BME280;4897;43.570;27.832;2022-08-19T10:27:04;98598.53;;;40.21;37.56
9717;BME280;4897;43.570;27.832;2022-08-19T10:29:32;98587.91;;;41.34;35.79
9717;BME280;4897;43.570;27.832;2022-08-19T10:32:04;98597.72;;;40.20;36.02
9717;BME280;4897;43.570;27.832;2022-08-19T10:34:31;98577.34;;;37.09;41.77
9717;BME280;4897;43.570;27.832;2022-08-19T10:37:02;98575.75;;;37.91;41.35
9717;BME280;4897;43.570;27.832;2022-08-19T10:39:30;98588.22;;;38.98;38.14
9717;BME280;4897;43.570;27.832;2022-08-19T10:42:04;98547.28;;;39.19;37.12
9717;BME280;4897;43.570;27.832;2022-08-19T10:44:32;98599.81;;;40.32;34.54
9717;BME280;4897;43.570;27.832;2022-08-19T10:47:01;98600.22;;;41.21;34.08
9717;BME280;4897;43.570;27.832;2022-08-19T10:49:29;98577.19;;;41.49;33.53
9717;BME280;4897;43.570;27.832;2022-08-19T10:52:16;98584.28;;;42.11;32.84
9717;BME280;4897;43.570;27.832;2022-08-19T10:55:00;98595.78;;;39.57;34.30
9717;BME280;4897;43.570;27.832;2022-08-19T10:57:57;98595.94;;;37.35;38.17
9717;BME280;4897;43.570;27.832;2022-08-19T11:00:26;98588.91;;;39.12;35.21
9717;BME280;4897;43.570;27.832;2022-08-19T11:02:56;98511.00;;;39.57;35.14
9717;BME280;4897;43.570;27.832;2022-08-19T11:05:26;98583.53;;;41.04;34.12
9717;BME280;4897;43.570;27.832;2022-08-19T11:07:53;98549.34;;;38.45;37.24
9717;BME280;4897;43.570;27.832;2022-08-19T11:10:30;98583.63;;;37.58;39.28
9717;BME280;4897;43.570;27.832;2022-08-19T11:12:58;98597.28;;;39.38;37.00
9717;BME280;4897;43.570;27.832;2022-08-19T11:15:28;98590.09;;;40.88;35.24
9717;BME280;4897;43.570;27.832;2022-08-19T11:17:57;98595.59;;;39.45;34.93
9717;BME280;4897;43.570;27.832;2022-08-19T11:20:24;98593.16;;;39.18;34.81
9717;BME280;4897;43.570;27.832;2022-08-19T11:22:53;98560.94;;;40.30;34.09
9717;BME280;4897;43.570;27.832;2022-08-19T11:25:20;98577.56;;;41.06;33.90
9717;BME280;4897;43.570;27.832;2022-08-19T11:27:51;98571.91;;;41.80;32.46
9717;BME280;4897;43.570;27.832;2022-08-19T11:30:20;98580.16;;;42.21;32.14
9717;BME280;4897;43.570;27.832;2022-08-19T11:32:47;98586.13;;;41.30;32.72
9717;BME280;4897;43.570;27.832;2022-08-19T11:35:17;98594.41;;;40.56;34.24
9717;BME280;4897;43.570;27.832;2022-08-19T11:37:45;98568.59;;;40.13;35.55
9717;BME280;4897;43.570;27.832;2022-08-19T11:40:13;98559.06;;;41.58;33.58
9717;BME280;4897;43.570;27.832;2022-08-19T11:42:40;98570.97;;;41.76;32.25
9717;BME280;4897;43.570;27.832;2022-08-19T11:45:28;98567.22;;;41.18;32.57
9717;BME280;4897;43.570;27.832;2022-08-19T11:47:55;98582.47;;;38.94;35.82
9717;BME280;4897;43.570;27.832;2022-08-19T11:50:22;98551.75;;;40.50;34.22
9717;BME280;4897;43.570;27.832;2022-08-19T11:52:50;98512.13;;;40.02;34.24
9717;BME280;4897;43.570;27.832;2022-08-19T11:55:18;98550.38;;;41.18;33.24
9717;BME280;4897;43.570;27.832;2022-08-19T11:57:45;98544.53;;;41.11;33.16
9717;BME280;4897;43.570;27.832;2022-08-19T12:00:13;98557.72;;;40.11;34.11
9717;BME280;4897;43.570;27.832;2022-08-19T12:02:42;98578.28;;;38.66;36.45
9717;BME280;4897;43.570;27.832;2022-08-19T12:05:09;98561.88;;;39.97;35.89
9717;BME280;4897;43.570;27.832;2022-08-19T12:07:38;98556.94;;;40.40;34.91
9717;BME280;4897;43.570;27.832;2022-08-19T12:10:06;98543.81;;;38.71;35.33
9717;BME280;4897;43.570;27.832;2022-08-19T12:12:33;98541.28;;;37.12;38.42
9717;BME280;4897;43.570;27.832;2022-08-19T12:15:06;98551.16;;;39.44;35.01
9717;BME280;4897;43.570;27.832;2022-08-19T12:17:36;98543.81;;;40.73;32.47
9717;BME280;4897;43.570;27.832;2022-08-19T12:20:07;98515.06;;;41.83;31.60
9717;BME280;4897;43.570;27.832;2022-08-19T12:22:36;98537.75;;;40.92;31.82
9717;BME280;4897;43.570;27.832;2022-08-19T12:25:05;98529.47;;;39.41;34.02
9717;BME280;4897;43.570;27.832;2022-08-19T12:27:36;98543.75;;;38.45;35.51
9717;BME280;4897;43.570;27.832;2022-08-19T12:30:09;98534.84;;;37.87;36.90
9717;BME280;4897;43.570;27.832;2022-08-19T12:32:38;98474.53;;;36.49;39.14
9717;BME280;4897;43.570;27.832;2022-08-19T12:35:07;98550.78;;;36.26;40.33
9717;BME280;4897;43.570;27.832;2022-08-19T12:37:34;98533.06;;;37.60;37.91
9717;BME280;4897;43.570;27.832;2022-08-19T12:40:03;98518.88;;;39.63;33.55
9717;BME280;4897;43.570;27.832;2022-08-19T12:42:31;98477.94;;;41.00;30.93
9717;BME280;4897;43.570;27.832;2022-08-19T12:44:58;98519.47;;;42.68;29.56
9717;BME280;4897;43.570;27.832;2022-08-19T12:47:25;98538.06;;;42.73;29.36
9717;BME280;4897;43.570;27.832;2022-08-19T12:49:52;98531.38;;;42.77;28.94
9717;BME280;4897;43.570;27.832;2022-08-19T12:59:17;98540.97;;;40.03;30.51
9717;BME280;4897;43.570;27.832;2022-08-19T13:01:47;98527.66;;;39.36;31.62
9717;BME280;4897;43.570;27.832;2022-08-19T13:04:15;98511.13;;;40.56;30.63
9717;BME280;4897;43.570;27.832;2022-08-19T13:06:42;98520.44;;;42.24;28.92
9717;BME280;4897;43.570;27.832;2022-08-19T13:09:16;98519.72;;;43.31;27.95
9717;BME280;4897;43.570;27.832;2022-08-19T13:11:43;98466.44;;;43.53;27.66
9717;BME280;4897;43.570;27.832;2022-08-19T13:14:10;98510.81;;;41.77;30.51
9717;BME280;4897;43.570;27.832;2022-08-19T13:16:38;98529.19;;;41.41;31.23
9717;BME280;4897;43.570;27.832;2022-08-19T13:19:08;98487.44;;;42.09;30.29
9717;BME280;4897;43.570;27.832;2022-08-19T13:21:36;98508.72;;;43.26;29.22
9717;BME280;4897;43.570;27.832;2022-08-19T13:24:03;98522.84;;;43.14;29.11
9717;BME280;4897;43.570;27.832;2022-08-19T13:26:30;98518.19;;;42.42;29.29
9717;BME280;4897;43.570;27.832;2022-08-19T13:28:57;98535.81;;;41.25;31.32
9717;BME280;4897;43.570;27.832;2022-08-19T13:31:43;98528.31;;;39.88;33.24
9717;BME280;4897;43.570;27.832;2022-08-19T13:34:30;98511.41;;;39.12;34.12
9717;BME280;4897;43.570;27.832;2022-08-19T13:36:58;98521.94;;;38.73;33.90
9717;BME280;4897;43.570;27.832;2022-08-19T13:39:28;98497.41;;;38.61;34.15
9717;BME280;4897;43.570;27.832;2022-08-19T13:41:58;98509.56;;;40.18;32.04
9717;BME280;4897;43.570;27.832;2022-08-19T13:44:26;98404.34;;;40.70;30.24
9717;BME280;4897;43.570;27.832;2022-08-19T13:47:00;98515.72;;;40.61;31.63